^^
Datos históricos de la estación: Murcia-Puente Tocinos
Diario Informe para Abril 16, 2021 Unidades:  Ingés    Métrico   Ambas
Diario Semanal Mensual Anual
  Máxima: Mínima: Promedio:
Temperatura: 66.6 °F 49.1 °F 55.6 °F
Punto de rocio: 49.5 °F 36.1 °F 45.7 °F
Humedad: 94% 32.9% 73%
Velocidad viento: 13.5mph 2mph 5.4mph
Racha viento: 21.9mph - -
Viento- - SE
Presión: 30.1 in 29.9 in -
Precipitación: 0.09 in    
 
 
Tabla de datos para Abril 16, 2021
Hora Temperatura Punto de rocio Presión Viento Velocidad viento Racha viento Humedad Intensidad lluvia(por hora) Nubes
00:04 50.7 °F 48.9 °F 30 in SSO 4.7 mph 9.2 mph 93.3% 0 in
00:09 50.7 °F 48.9 °F 30 in Sur 4.7 mph 9 mph 93.7% 0 in
00:14 50.7 °F 49.1 °F 30 in SSE 4.7 mph 6.9 mph 94% 0 in
00:19 50.9 °F 49.3 °F 30 in Sur 4.7 mph 7 mph 94% 0 in
00:24 50.9 °F 49.3 °F 30 in Sur 4.7 mph 7.4 mph 94% 0 in
00:29 50.7 °F 49.1 °F 30 in Sur 4.3 mph 8.1 mph 94% 0 in
00:34 50.7 °F 49.1 °F 30 in Sur 4.3 mph 8.1 mph 94% 0 in
00:39 50.7 °F 49.1 °F 30 in Sur 4.6 mph 7 mph 94% 0 in
00:44 50.7 °F 49.1 °F 30 in SSE 4.7 mph 6.9 mph 94% 0 in
00:49 50.7 °F 49.1 °F 30 in Sur 4.5 mph 7 mph 94% 0 in
00:54 50.7 °F 49.1 °F 30 in SSE 4.3 mph 7 mph 94% 0 in
00:59 50.7 °F 49.1 °F 30 in Sur 3.7 mph 6.9 mph 94% 0 in
01:04 50.7 °F 49.1 °F 30 in Sur 3.6 mph 7 mph 94% 0 in
01:09 50.7 °F 49.1 °F 30 in Sur 4.5 mph 7 mph 94% 0 in
01:14 50.7 °F 49.1 °F 30 in Sur 4.7 mph 7 mph 93.8% 0 in
01:19 50.7 °F 49.1 °F 30 in SSO 4.2 mph 6 mph 93.9% 0 in
01:24 50.9 °F 48.9 °F 30 in Sur 4 mph 5.9 mph 93% 0 in
01:29 50.9 °F 48.9 °F 30 in SSO 3.7 mph 4.7 mph 93% 0 in
01:34 51.1 °F 49.1 °F 30 in SSO 3.6 mph 2.9 mph 93.2% 0 in
01:39 51.1 °F 49.1 °F 30 in SO 2.4 mph 3.6 mph 93% 0 in
01:44 51.1 °F 49.1 °F 30 in SSO 2 mph 5.2 mph 93% 0 in
01:49 51.1 °F 49.1 °F 30 in SSO 2.3 mph 5 mph 93% 0 in
01:54 51.3 °F 49.3 °F 30 in Sur 2.4 mph 6.2 mph 93% 0 in
01:59 51.3 °F 49.3 °F 30 in Sur 3.2 mph 6.2 mph 93% 0 in
02:04 51.3 °F 49.3 °F 30 in Sur 3.6 mph 6.2 mph 93% 0 in
02:09 51.4 °F 49.5 °F 30 in Sur 3.6 mph 6 mph 93% 0 in
02:14 51.4 °F 49.5 °F 30 in Sur 3.6 mph 6 mph 92.7% 0 in
02:19 51.6 °F 49.5 °F 30 in Sur 3.9 mph 6.9 mph 92% 0 in
02:24 51.6 °F 49.5 °F 30 in Sur 4 mph 7 mph 92% 0 in
02:29 51.6 °F 49.5 °F 30 in Sur 4.3 mph 7 mph 92% 0 in
02:34 51.6 °F 49.5 °F 30 in Sur 4.3 mph 6 mph 92% 0 in
02:39 51.6 °F 49.5 °F 30 in Sur 4.1 mph 6 mph 92% 0 in
02:44 51.6 °F 49.5 °F 30 in SSO 4 mph 5.2 mph 92% 0 in
02:49 51.6 °F 49.5 °F 30 in SSO 3.4 mph 5 mph 92% 0 in
02:54 51.6 °F 49.5 °F 30 in SSO 3.1 mph 5.8 mph 92% 0 in
02:59 51.6 °F 49.5 °F 30 in SSO 3.1 mph 6 mph 91.9% 0 in
03:04 51.6 °F 49.1 °F 30 in SSO 3.1 mph 5 mph 91.1% 0 in
03:09 51.6 °F 49.1 °F 30 in SO 3 mph 5.2 mph 91% 0 in
03:14 51.6 °F 49.1 °F 30 in SO 2.9 mph 5.2 mph 91% 0 in
03:19 51.6 °F 49.1 °F 30 in SO 3 mph 5 mph 91% 0 in
03:24 51.6 °F 49.1 °F 30 in SO 3.1 mph 5 mph 91% 0 in
03:29 51.4 °F 49.1 °F 30 in SO 2.7 mph 5 mph 91% 0 in
03:34 51.4 °F 48.9 °F 30 in SSO 2.4 mph 5 mph 91% 0 in
03:39 51.4 °F 48.9 °F 30 in Sur 2.7 mph 5 mph 91% 0 in
03:44 51.4 °F 48.9 °F 30 in SSO 2.9 mph 5 mph 91% 0 in
03:49 51.4 °F 49.1 °F 30 in SSO 2.2 mph 5 mph 91.5% 0 in
03:54 51.4 °F 49.1 °F 30 in SSO 2 mph 5.2 mph 91.5% 0 in
03:59 51.4 °F 48.9 °F 30 in SO 2.8 mph 5.2 mph 91.1% 0 in
04:04 51.4 °F 48.7 °F 30 in SO 3.1 mph 6 mph 91% 0 in
04:09 51.3 °F 48.7 °F 30 in SSO 3.1 mph 4.7 mph 91% 0 in
04:14 51.3 °F 48.7 °F 30 in SSO 3.1 mph 5.2 mph 91% 0 in
04:19 51.3 °F 48.7 °F 30 in Sur 3.1 mph 6.2 mph 91% 0 in
04:24 51.3 °F 48.7 °F 30 in SSO 3.1 mph 6.9 mph 91% 0 in
04:29 51.3 °F 48.7 °F 30 in SSO 3.7 mph 7 mph 91% 0 in
04:34 51.3 °F 48.7 °F 30 in SSO 4.3 mph 6.9 mph 91% 0 in
04:39 51.1 °F 48.6 °F 30 in SSO 4.3 mph 6.9 mph 91% 0 in
04:44 51.1 °F 48.6 °F 30 in SO 4.3 mph 7 mph 91% 0 in
04:48 50.9 °F 48.4 °F 30 in SO 4 mph 6.9 mph 91% 0 in
04:54 50.7 °F 48.2 °F 30 in SSO 4.1 mph 7 mph 91% 0 in
04:59 50.9 °F 48.2 °F 30 in SSO 4.2 mph 7 mph 90.3% 0 in
05:04 51.1 °F 48.2 °F 30 in SSO 4.3 mph 7 mph 90% 0 in
05:09 51.1 °F 48.2 °F 30 in Sur 4.3 mph 8.1 mph 90% 0 in
05:14 51.1 °F 48.4 °F 30 in SSO 4.3 mph 8 mph 90.3% 0 in
05:19 50.9 °F 48.4 °F 30 in SSO 4.3 mph 6 mph 91% 0 in
05:24 50.9 °F 48.4 °F 30 in Sur 4.3 mph 6 mph 91% 0 in
05:29 50.9 °F 48.4 °F 30 in Sur 4.1 mph 6 mph 91% 0 in
05:34 50.7 °F 48.2 °F 30 in Sur 4 mph 6.9 mph 91% 0 in
05:39 50.5 °F 47.8 °F 30 in Sur 4.2 mph 7 mph 91% 0 in
05:44 50.4 °F 47.8 °F 30 in SSO 4.3 mph 6.9 mph 91% 0 in
05:49 50.4 °F 47.8 °F 30 in Sur 4.3 mph 7 mph 91% 0 in
05:54 50.2 °F 47.7 °F 30 in Sur 4.3 mph 7 mph 91% 0 in
05:59 50 °F 47.5 °F 30 in Sur 4 mph 8.1 mph 91% 0 in
06:04 49.8 °F 47.3 °F 30 in Sur 4 mph 9 mph 91% 0 in
06:09 49.6 °F 47.1 °F 30 in Sur 4.9 mph 8.1 mph 91% 0 in
06:14 49.6 °F 47.1 °F 30 in SSO 5.4 mph 8.1 mph 91% 0 in
06:19 49.6 °F 46.9 °F 30 in SSO 5.4 mph 9 mph 90.4% 0 in
06:24 49.8 °F 46.9 °F 30 in SSO 5.4 mph 9.2 mph 89.8% 0 in
06:29 49.8 °F 46.8 °F 30 in SSO 5.3 mph 8 mph 89% 0 in
06:34 49.8 °F 46.8 °F 30 in Sur 5.2 mph 8.1 mph 89% 0 in
06:39 49.8 °F 46.6 °F 30 in Sur 4.6 mph 8 mph 89% 0 in
06:44 49.6 °F 46.6 °F 30 in Sur 4.3 mph 7 mph 89% 0 in
06:49 49.6 °F 46.4 °F 30 in Sur 4.1 mph 6.9 mph 89% 0 in
06:54 49.5 °F 46.4 °F 30 in SSO 4 mph 7 mph 89% 0 in
06:59 49.5 °F 46.4 °F 30 in SSO 4.2 mph 7.4 mph 89% 0 in
07:04 49.3 °F 46.2 °F 30 in SSO 4.3 mph 7.4 mph 89% 0 in
07:09 49.3 °F 46.2 °F 30 in SSO 4.6 mph 9.2 mph 89% 0 in
07:14 49.3 °F 46.2 °F 30 in SSO 4.7 mph 6.9 mph 89% 0 in
07:19 49.3 °F 46 °F 30 in Sur 5 mph 8.1 mph 88.3% 0 in
07:24 49.1 °F 45.9 °F 30 in Sur 5.2 mph 9.2 mph 88% 0 in
07:29 49.1 °F 45.7 °F 30 in Sur 5.3 mph 9.2 mph 88% 0 in
07:34 49.1 °F 45.7 °F 30 in SSO 5.4 mph 10.4 mph 88% 0 in
07:39 49.1 °F 45.3 °F 30 in Sur 5.8 mph 10.4 mph 87% 0 in
07:44 49.1 °F 45.3 °F 30 in SSO 6.2 mph 11.5 mph 87% 0 in
07:49 49.3 °F 45.5 °F 30 in SSO 7.1 mph 12 mph 86.5% 0 in
07:54 49.3 °F 45.3 °F 30 in SSO 7.4 mph 12 mph 86% 0 in
07:59 49.5 °F 45.3 °F 30 in SSO 7.1 mph 10 mph 86% 0 in
08:04 49.5 °F 45.3 °F 30 in SSO 6.9 mph 9 mph 85.8% 0 in
08:09 49.5 °F 45.1 °F 30 in SSO 5.7 mph 9 mph 85% 0 in
08:14 49.6 °F 45.3 °F 30 in SO 5.2 mph 8 mph 85% 0 in
08:19 49.6 °F 45.3 °F 30 in Sur 4.6 mph 7 mph 85% 0 in
08:24 49.6 °F 45.3 °F 30 in SSO 4.3 mph 6 mph 85% 0 in
08:29 49.8 °F 45.5 °F 30 in SSO 3.4 mph 6.9 mph 85% 0 in
08:34 50 °F 45.7 °F 30 in SSO 3.1 mph 7 mph 84.8% 0 in
08:39 50.2 °F 45.5 °F 30 in SSO 3.8 mph 7 mph 84% 0 in
08:44 50.4 °F 45.7 °F 30 in SSO 4 mph 9.2 mph 83.7% 0 in
08:49 50.5 °F 45.7 °F 30 in SSO 4.3 mph 8.5 mph 83% 0 in
08:54 50.7 °F 45.7 °F 30 in SO 4.7 mph 9 mph 82.5% 0 in
08:59 51.1 °F 45.9 °F 30 in SSO 4.5 mph 10.2 mph 82% 0 in
09:04 51.4 °F 45.9 °F 30 in SSO 4.3 mph 10.4 mph 81.2% 0 in
09:09 51.6 °F 46 °F 30 in SSO 4.3 mph 10 mph 81% 0 in
09:14 51.8 °F 45.9 °F 30 in SSO 4.3 mph 8.1 mph 80% 0 in
09:19 52 °F 46 °F 30 in SSO 4.7 mph 8.1 mph 80% 0 in
09:24 52.3 °F 46 °F 30 in SSO 4.7 mph 8.1 mph 79.5% 0 in
09:29 52.5 °F 46.2 °F 30 in Sur 4.4 mph 9.7 mph 79.3% 0 in
09:34 52.7 °F 46 °F 30 in SSO 4.3 mph 8.5 mph 78.2% 0 in
09:39 52.9 °F 46.2 °F 30 in SSO 5.1 mph 8.1 mph 78% 0 in
09:44 53.2 °F 46.4 °F 30 in Sur 5.4 mph 8 mph 77.6% 0 in
09:47 53.4 °F 46.4 °F 30 in SSO 5 mph 7 mph 77.2% 0 in
09:54 53.8 °F 46.4 °F 30 in SSO 4 mph 8.1 mph 76% 0 in
09:59 54 °F 46.2 °F 30 in Sur 4.3 mph 9.2 mph 75.2% 0 in
10:04 54.1 °F 46.2 °F 30 in SSO 4.3 mph 9 mph 74.1% 0 in
10:09 54.3 °F 46.2 °F 30 in SO 4.8 mph 9 mph 74% 0 in
10:14 54.7 °F 46.6 °F 30 in SSO 5.2 mph 8 mph 74% 0 in
10:19 54.9 °F 46.6 °F 30 in SO 4.8 mph 9.7 mph 74% 0 in
10:24 55 °F 46.8 °F 30 in SSO 4.7 mph 10.4 mph 73.8% 0 in
10:29 55 °F 46.6 °F 30 in SSO 5 mph 9 mph 73% 0 in
10:34 55.4 °F 46.6 °F 30 in SSO 5.2 mph 9.2 mph 72.1% 0 in
10:39 55.8 °F 46.8 °F 30 in SSO 5.3 mph 9 mph 72% 0 in
10:44 55.9 °F 46.8 °F 30 in Sur 5.4 mph 9.7 mph 71.2% 0 in
10:49 56.3 °F 46.9 °F 30 in SSO 4.5 mph 11.5 mph 70.7% 0 in
10:54 56.5 °F 46.6 °F 30 in SSO 4 mph 12 mph 69.7% 0 in
10:59 56.5 °F 46.2 °F 30 in OSO 5.7 mph 9 mph 68.5% 0 in
11:04 56.7 °F 46.2 °F 30 in SO 5.9 mph 9.2 mph 68.3% 0 in
11:09 56.8 °F 46.6 °F 30 in SO 4.4 mph 6.9 mph 68.3% 0 in
11:14 57.2 °F 46.6 °F 30 in SSO 4 mph 8.5 mph 67.8% 0 in
11:19 57.6 °F 46.8 °F 30 in SO 4.2 mph 10.4 mph 67.1% 0 in
11:24 57.7 °F 46.6 °F 30 in Sur 4.3 mph 8.5 mph 66.3% 0 in
11:29 57.9 °F 46.6 °F 30 in OSO 4.3 mph 9 mph 66% 0 in
11:34 58.3 °F 46.8 °F 30 in SSO 4.3 mph 6.9 mph 65.6% 0 in
11:39 58.6 °F 46.6 °F 30 in Sur 3.8 mph 8.5 mph 64% 0 in
11:44 58.8 °F 45.7 °F 30 in SSO 3.6 mph 9 mph 61.9% 0 in
11:49 59 °F 45.9 °F 30 in SSE 4.5 mph 8.1 mph 61.8% 0 in
11:54 59.4 °F 46.4 °F 30 in Oeste 4.7 mph 8 mph 62% 0 in
11:59 59.7 °F 45.7 °F 30 in Sur 4 mph 8.5 mph 59.4% 0 in
12:04 60.1 °F 44.4 °F 30 in Sur 3.6 mph 9.7 mph 56.2% 0 in
12:09 60.3 °F 43 °F 30 in SE 5.5 mph 10.4 mph 52.7% 0 in
12:14 60.4 °F 43.5 °F 30 in SO 5.9 mph 10 mph 53.8% 0 in
12:19 60.6 °F 43.2 °F 30 in SO 4.9 mph 8 mph 52.5% 0 in
12:24 60.8 °F 43.2 °F 30 in SO 4.7 mph 6.9 mph 52% 0 in
12:29 61.2 °F 42.3 °F 30 in NNO 3.9 mph 8.1 mph 50.1% 0 in
12:34 61.3 °F 41.9 °F 30 in NNE 3.6 mph 10.4 mph 48.7% 0 in
12:39 61.3 °F 41.2 °F 30 in NNE 4.3 mph 10 mph 47.5% 0 in
12:44 61.7 °F 40.8 °F 30 in ENE 4.7 mph 6.2 mph 46.3% 0 in
12:49 62.1 °F 40.8 °F 30 in North 4.2 mph 6.2 mph 45.6% 0 in
12:54 62.1 °F 40.3 °F 30 in Este 4 mph 6 mph 44.7% 0 in
12:59 62.4 °F 40.6 °F 30 in Este 3.1 mph 7.4 mph 44.9% 0 in
13:04 62.8 °F 40.8 °F 30 in Este 2.9 mph 5.9 mph 44.3% 0 in
13:09 62.8 °F 40.5 °F 30 in Sur 3.7 mph 8.5 mph 43.9% 0 in
13:14 62.8 °F 40.5 °F 30 in SSE 4.3 mph 8.1 mph 43.9% 0 in
13:19 63.1 °F 40.5 °F 30 in Sur 4.3 mph 8 mph 43.3% 0 in
13:24 63.5 °F 40.5 °F 30 in ESE 4.3 mph 6.9 mph 42.9% 0 in
13:29 63.7 °F 40.6 °F 30 in Este 3.9 mph 7.4 mph 42.7% 0 in
13:34 63.3 °F 39.7 °F 30 in ENE 3.6 mph 9.2 mph 41.9% 0 in
13:39 63.3 °F 39.9 °F 30 in Este 4.5 mph 9.2 mph 42% 0 in
13:44 63.7 °F 40.1 °F 30 in Este 5.2 mph 9.2 mph 42% 0 in
13:49 63.9 °F 40.3 °F 30 in ENE 4.3 mph 9.2 mph 41.8% 0 in
13:54 64 °F 39.9 °F 30 in NNE 4 mph 9.2 mph 41.3% 0 in
13:59 63.9 °F 39.2 °F 30 in ESE 4.5 mph 9 mph 40.3% 0 in
14:04 63.9 °F 39 °F 30 in SSE 4.7 mph 7 mph 39.9% 0 in
14:09 64 °F 39.4 °F 30 in SE 3.9 mph 9.2 mph 40.2% 0 in
14:14 64.2 °F 39.4 °F 30 in Este 3.6 mph 7.4 mph 40.1% 0 in
14:18 64.4 °F 39 °F 30 in ENE 3.8 mph 9.2 mph 39.4% 0 in
14:24 64.2 °F 37.9 °F 30 in ESE 4 mph 9 mph 37.9% 0 in
14:29 64.6 °F 37.8 °F 30 in ENE 3.5 mph 5 mph 37.2% 0 in
14:34 64.9 °F 38.5 °F 30 in NNE 3.1 mph 7.6 mph 37.7% 0 in
14:39 65.1 °F 38.3 °F 30 in ESE 3 mph 9 mph 37.1% 0 in
14:44 65.1 °F 37.9 °F 30 in Este 2.9 mph 8 mph 36.5% 0 in
14:49 65.3 °F 37.9 °F 30 in SE 2.9 mph 6 mph 36.5% 0 in
14:54 65.7 °F 37.9 °F 30 in NNE 2.9 mph 6.9 mph 36.1% 0 in
14:59 65.5 °F 38.1 °F 30 in NE 3 mph 7 mph 36.4% 0 in
15:04 65.1 °F 38.3 °F 30 in Este 3.1 mph 7 mph 37% 0 in
15:09 65.5 °F 38.1 °F 30 in ESE 4 mph 13 mph 36.5% 0 in
15:14 65.5 °F 37.9 °F 30 in SE 4.3 mph 13 mph 36.1% 0 in
15:19 65.5 °F 37.8 °F 30 in Sur 5.8 mph 13 mph 36% 0 in
15:24 65.7 °F 37.8 °F 30 in ONO 6.2 mph 10 mph 35.8% 0 in
15:29 66 °F 37.4 °F 30 in Este 4.4 mph 10.4 mph 34.8% 0 in
15:34 66.2 °F 36.7 °F 29.9 in SE 3.6 mph 10 mph 33.7% 0 in
15:39 66.4 °F 36.3 °F 29.9 in ESE 3.2 mph 10.4 mph 32.9% 0 in
15:44 66.2 °F 36.1 °F 29.9 in ESE 3.1 mph 11 mph 33% 0 in
15:49 66 °F 36.7 °F 29.9 in ESE 5.1 mph 8.1 mph 33.7% 0 in
15:54 66.6 °F 39.2 °F 29.9 in NNE 5.9 mph 9.7 mph 36.9% 0 in
15:59 66.4 °F 41.2 °F 29.9 in ESE 4.7 mph 10 mph 39.8% 0 in
16:04 66.2 °F 40.3 °F 29.9 in ESE 4 mph 10.4 mph 38.6% 0 in
16:09 66.2 °F 39.7 °F 29.9 in SE 4.8 mph 12.3 mph 37.9% 0 in
16:14 66.6 °F 43.5 °F 29.9 in ESE 5.2 mph 15 mph 43.3% 0 in
16:19 66.4 °F 44.6 °F 29.9 in ESE 7.4 mph 13.8 mph 45.3% 0 in
16:24 66.4 °F 44.8 °F 29.9 in ESE 7.6 mph 15 mph 45.9% 0 in
16:29 66 °F 44.8 °F 29.9 in SE 8.4 mph 15 mph 46.2% 0 in
16:34 65.8 °F 45 °F 29.9 in ESE 8.7 mph 17.3 mph 46.9% 0 in
16:39 65.3 °F 45.7 °F 29.9 in ESE 10.2 mph 18.5 mph 49% 0 in
16:44 65.1 °F 45.3 °F 29.9 in ESE 10.7 mph 19 mph 48.7% 0 in
16:49 65.7 °F 45.5 °F 29.9 in ESE 10.4 mph 18.5 mph 48.2% 0 in
16:54 65.3 °F 45 °F 29.9 in ESE 10.2 mph 19 mph 47.9% 0 in
16:59 64.9 °F 45.1 °F 29.9 in ESE 10.2 mph 20.7 mph 48.8% 0 in
17:04 64.4 °F 44.8 °F 29.9 in ESE 10.2 mph 21 mph 49% 0 in
17:09 64 °F 45 °F 29.9 in ESE 11.8 mph 21 mph 49.7% 0 in
17:14 63.9 °F 45 °F 29.9 in Este 12.3 mph 21 mph 50% 0 in
17:19 63.7 °F 45.1 °F 29.9 in ESE 13.2 mph 20.7 mph 50.9% 0 in
17:24 63.5 °F 45.1 °F 29.9 in Este 13.5 mph 21 mph 51% 0 in
17:29 63.3 °F 45.5 °F 29.9 in ESE 13.5 mph 20.7 mph 52.1% 0 in
17:34 63.5 °F 45.5 °F 29.9 in ESE 13.5 mph 18.4 mph 52% 0 in
17:39 63.3 °F 45.3 °F 29.9 in Este 11.5 mph 18 mph 51.6% 0 in
17:44 63.3 °F 45.1 °F 29.9 in ESE 10.2 mph 17 mph 51.4% 0 in
17:49 63.3 °F 45.3 °F 29.9 in Este 9.1 mph 13.8 mph 51.9% 0 in
17:54 63.1 °F 45 °F 29.9 in ENE 8.7 mph 14 mph 51.6% 0 in
17:59 62.8 °F 45 °F 29.9 in ENE 8 mph 14 mph 52% 0 in
18:04 62.8 °F 45 °F 29.9 in ENE 7.6 mph 13.8 mph 52.2% 0 in
18:09 62.4 °F 45.1 °F 29.9 in NE 8.4 mph 15 mph 53.3% 0 in
18:14 62.8 °F 45.9 °F 29.9 in NE 8.7 mph 13 mph 54% 0 in
18:19 63 °F 45.7 °F 29.9 in NNE 7.8 mph 13.8 mph 53.4% 0 in
18:24 62.8 °F 46 °F 29.9 in NE 6.9 mph 16.1 mph 54.5% 0 in
18:29 62.2 °F 46 °F 29.9 in ENE 8.7 mph 18.4 mph 55.6% 0 in
18:34 62.1 °F 46.4 °F 29.9 in Este 9.2 mph 16.1 mph 56.3% 0 in
18:39 62.2 °F 46.8 °F 29.9 in Este 8.5 mph 16 mph 56.8% 0 in
18:44 62.2 °F 46.2 °F 29.9 in ESE 8.1 mph 17.5 mph 56% 0 in
18:49 62.1 °F 45.9 °F 29.9 in ESE 9.1 mph 18.5 mph 55.6% 0 in
18:54 61.5 °F 45.7 °F 29.9 in ESE 9.7 mph 19 mph 56% 0 in
18:59 61.2 °F 45.1 °F 29.9 in Este 11.1 mph 19.7 mph 55.7% 0 in
19:04 60.8 °F 45 °F 29.9 in ESE 11.8 mph 20.4 mph 56% 0 in
19:09 60.4 °F 44.8 °F 29.9 in Este 11.5 mph 20.7 mph 56% 0 in
19:14 60.3 °F 44.6 °F 29.9 in Este 11.4 mph 19.6 mph 56% 0 in
19:19 60.3 °F 45 °F 29.9 in Este 10.3 mph 20 mph 57% 0 in
19:24 60.1 °F 44.8 °F 29.9 in Este 10.2 mph 16.1 mph 57% 0 in
19:29 60.1 °F 44.8 °F 29.9 in ENE 9 mph 12.7 mph 57% 0 in
19:34 60.1 °F 44.6 °F 29.9 in NE 8.7 mph 10.4 mph 56.8% 0 in
19:39 60.1 °F 44.4 °F 29.9 in NE 6.9 mph 10.4 mph 56.3% 0 in
19:44 59.9 °F 44.6 °F 30 in NNE 5.9 mph 13 mph 57% 0 in
19:49 59.7 °F 45.1 °F 30 in NNE 6.3 mph 17.3 mph 58.7% 0 in
19:54 59.4 °F 45.1 °F 30 in NNE 6.4 mph 15.2 mph 59.4% 0 in
19:59 59 °F 44.8 °F 30 in North 9.1 mph 15 mph 59.1% 0 in
20:04 58.5 °F 45.3 °F 30 in NNE 10 mph 21.5 mph 61.5% 0.01 in
20:09 57.2 °F 46 °F 30 in NNE 10.1 mph 21.9 mph 66% 0.04 in
20:14 55.8 °F 46.9 °F 30 in NNE 10.2 mph 21 mph 72.1% 0.04 in
20:19 54.7 °F 47.7 °F 30 in NNE 10.6 mph 20 mph 77.1% 0.05 in
20:24 54.1 °F 48.2 °F 30 in North 10.7 mph 16 mph 79.8% 0.05 in
20:29 53.8 °F 48.2 °F 30 in North 9.3 mph 21.9 mph 81.2% 0.05 in
20:34 52.5 °F 47.3 °F 30 in NNE 8.5 mph 19.7 mph 82.2% 0.06 in
20:39 52.2 °F 47.3 °F 30 in NE 10.9 mph 19 mph 83.4% 0.06 in
20:44 51.6 °F 46.9 °F 30 in NE 11.8 mph 17.3 mph 83.9% 0.06 in
20:49 51.4 °F 46.9 °F 30 in ENE 10.5 mph 17 mph 84.4% 0.08 in
20:54 51.4 °F 47.1 °F 30 in ENE 9.7 mph 15.6 mph 85% 0.08 in
20:59 51.3 °F 47.1 °F 30 in NE 8.1 mph 16.1 mph 85.9% 0.08 in
21:04 50.9 °F 46.9 °F 30 in NE 7.6 mph 16.1 mph 86% 0.08 in
21:09 50.9 °F 46.9 °F 30 in NE 7.5 mph 11.5 mph 86% 0.07 in
21:14 50.7 °F 46.8 °F 30 in NNE 7.4 mph 10.7 mph 86% 0.04 in
21:19 50.7 °F 46.8 °F 30 in NNE 5.6 mph 11 mph 86% 0.04 in
21:24 50.7 °F 46.9 °F 30 in NE 5.2 mph 10 mph 86.8% 0.03 in
21:29 50.7 °F 46.8 °F 30 in NNE 4.3 mph 10.4 mph 86.5% 0.03 in
21:34 50.7 °F 46.9 °F 30 in NNE 4 mph 9 mph 86.9% 0.02 in
21:39 50.7 °F 46.9 °F 30 in NE 4.9 mph 6.9 mph 87% 0.03 in
21:44 50.7 °F 46.9 °F 30 in NE 5.2 mph 5.8 mph 87% 0.03 in
21:49 50.7 °F 46.9 °F 30 in NE 4.1 mph 9.2 mph 87% 0.03 in
21:54 50.7 °F 46.9 °F 30 in NNE 3.1 mph 12.7 mph 87% 0.01 in
21:59 50.7 °F 46.9 °F 30.1 in NNE 5.9 mph 13 mph 87% 0.01 in
22:04 50.5 °F 46.8 °F 30.1 in NNE 6.4 mph 11.5 mph 87% 0.01 in
22:09 50.4 °F 46.6 °F 30.1 in NNE 6.4 mph 13.8 mph 87% 0.01 in
22:14 50.2 °F 46.6 °F 30.1 in NNE 6.4 mph 14 mph 87% 0.01 in
22:19 50 °F 46.4 °F 30.1 in NNE 6.8 mph 14 mph 87.2% 0.01 in
22:24 50 °F 46.4 °F 30.1 in NNE 6.9 mph 13.8 mph 87.6% 0.01 in
22:29 49.8 °F 46.4 °F 30.1 in NNE 6.9 mph 12 mph 88% 0.01 in
22:34 49.8 °F 46.4 °F 30.1 in NNE 6.9 mph 9.7 mph 88% 0.01 in
22:39 49.6 °F 46.6 °F 30.1 in NNE 6.5 mph 10.4 mph 88.9% 0.01 in
22:44 49.6 °F 46.6 °F 30.1 in NNE 6.2 mph 9.2 mph 89% 0 in
22:49 49.6 °F 46.6 °F 30.1 in NNE 6 mph 9 mph 89.4% 0 in
22:54 49.5 °F 46.6 °F 30.1 in NNE 5.9 mph 8.5 mph 90% 0 in
22:59 49.5 °F 46.6 °F 30.1 in NNE 5.4 mph 8.1 mph 90% 0 in
23:04 49.3 °F 46.6 °F 30.1 in NNE 5.2 mph 8.1 mph 90% 0 in
23:09 49.3 °F 46.6 °F 30.1 in North 4.4 mph 7 mph 90% 0 in
23:14 49.3 °F 46.6 °F 30.1 in North 4 mph 6.9 mph 90% 0 in
23:19 49.3 °F 46.6 °F 30.1 in NNE 4 mph 7 mph 90% 0 in
23:24 49.3 °F 46.6 °F 30.1 in NNE 4 mph 7 mph 90% 0 in
23:29 49.5 °F 46.6 °F 30.1 in NNE 3.7 mph 7 mph 90% 0 in
23:34 49.3 °F 46.6 °F 30.1 in NNE 3.6 mph 6.9 mph 90% 0 in
23:39 49.3 °F 46.6 °F 30.1 in NNE 3.9 mph 7 mph 90% 0 in
23:44 49.3 °F 46.6 °F 30.1 in NNE 4 mph 5.8 mph 90% 0 in
23:49 49.3 °F 46.6 °F 30.1 in North 3.8 mph 6 mph 90% 0 in
23:54 49.3 °F 46.6 °F 30.1 in North 3.6 mph 4.6 mph 90% 0 in
23:59 49.3 °F 46.6 °F 30.1 in North 3 mph 5 mph 90% 0 in
Murcia-Puente Tocinos, España
Compliments of Weather Underground - 3 mb

La estación de MeteoMurcia.com, publica sus datos en los siguientes proyectos:

Weather Underground PWS IMURCIAP2 Meteoclimatic www.awekas.at

W3Counter
Web Analytics